Time;durP1;ratioP1;P1;durP2;ratioP2;P2;SDS_P1;SDS_P2;PMS_P1;PMS_P2;Temp;Humidity;BMP_temperature;BMP_pressure;BME280_temperature;BME280_humidity;BME280_pressure;Samples;Min_cycle;Max_cycle;Signal;HPM_P1;HPM_P2
2023/06/25 00:01:18;;;;;;;14.88;10.55;;;19.30;99.90;;;;;;5072707;28;20045;-71
2023/06/25 00:03:44;;;;;;;18.05;10.77;;;19.30;99.90;;;;;;5072723;28;20539;-71
2023/06/25 00:06:10;;;;;;;14.75;11.27;;;19.30;99.90;;;;;;5072542;28;20024;-71
2023/06/25 00:08:35;;;;;;;17.58;11.93;;;19.30;99.90;;;;;;5072755;28;20066;-71
2023/06/25 00:11:01;;;;;;;15.15;11.48;;;19.20;99.90;;;;;;5072231;28;20037;-71
2023/06/25 00:13:27;;;;;;;14.02;11.02;;;19.10;99.90;;;;;;5072530;28;20029;-71
2023/06/25 00:15:52;;;;;;;15.05;10.55;;;19.10;99.90;;;;;;5072243;28;20032;-71
2023/06/25 00:18:18;;;;;;;17.17;11.48;;;19.00;99.90;;;;;;5072581;28;20033;-71
2023/06/25 00:20:46;;;;;;;15.45;11.02;;;19.00;99.90;;;;;;5072459;28;20029;-71
2023/06/25 00:23:12;;;;;;;17.95;12.05;;;18.90;99.90;;;;;;5072391;28;20032;-71
2023/06/25 00:25:37;;;;;;;15.25;11.38;;;18.90;99.90;;;;;;5072382;28;20095;-71
2023/06/25 00:28:08;;;;;;;16.65;12.45;;;18.80;99.90;;;;;;5071821;28;20469;-71
2023/06/25 00:30:33;;;;;;;18.75;13.20;;;18.80;99.90;;;;;;5072274;28;20078;-71
2023/06/25 00:32:59;;;;;;;17.33;11.85;;;18.80;99.90;;;;;;5065016;28;20020;-71
2023/06/25 00:35:38;;;;;;;19.42;11.63;;;18.70;99.90;;;;;;5056147;28;20060;-71
2023/06/25 00:38:04;;;;;;;15.70;10.68;;;18.70;99.90;;;;;;5071971;28;20412;-71
2023/06/25 00:40:30;;;;;;;18.05;11.70;;;18.70;99.90;;;;;;5071076;28;20024;-71
2023/06/25 00:42:58;;;;;;;15.75;12.65;;;18.70;99.90;;;;;;5072123;28;20070;-71
2023/06/25 00:45:29;;;;;;;15.95;11.77;;;18.70;99.90;;;;;;5071634;28;20032;-71
2023/06/25 00:47:55;;;;;;;15.85;11.93;;;18.70;99.90;;;;;;5071543;28;20031;-71
2023/06/25 00:50:21;;;;;;;13.27;11.00;;;18.80;99.90;;;;;;5071864;28;20066;-71
2023/06/25 00:52:48;;;;;;;17.27;12.55;;;18.80;99.90;;;;;;5063056;28;20025;-71
2023/06/25 00:55:15;;;;;;;18.15;12.73;;;18.80;99.90;;;;;;5071688;28;20024;-71
2023/06/25 00:57:41;;;;;;;17.17;11.10;;;18.80;99.90;;;;;;5071856;28;20099;-71
2023/06/25 01:00:12;;;;;;;18.08;12.05;;;18.70;99.90;;;;;;5071783;28;20028;-71
2023/06/25 01:02:49;;;;;;;14.68;12.05;;;18.70;99.90;;;;;;5071747;28;20036;-71
2023/06/25 01:05:38;;;;;;;14.35;11.93;;;18.60;99.90;;;;;;5071547;28;20033;-71
2023/06/25 01:08:08;;;;;;;19.52;12.55;;;18.60;99.90;;;;;;5071336;28;20020;-71
2023/06/25 01:10:35;;;;;;;20.70;13.52;;;18.60;99.90;;;;;;5072082;28;20085;-71
2023/06/25 01:13:01;;;;;;;20.30;13.70;;;18.60;99.90;;;;;;5071163;28;20027;-71
2023/06/25 01:15:26;;;;;;;19.35;13.93;;;18.50;99.90;;;;;;5071668;28;20029;-71
2023/06/25 01:17:53;;;;;;;17.80;12.82;;;18.50;99.90;;;;;;5071111;28;20059;-71
2023/06/25 01:20:19;;;;;;;15.90;12.65;;;18.50;99.90;;;;;;5071363;28;20434;-71
2023/06/25 01:22:46;;;;;;;18.95;14.02;;;18.50;99.90;;;;;;5071593;28;20123;-71
2023/06/25 01:25:11;;;;;;;18.15;12.98;;;18.50;99.90;;;;;;5071076;28;20098;-71
2023/06/25 01:27:37;;;;;;;17.83;14.30;;;18.50;99.90;;;;;;5071767;28;20063;-71
2023/06/25 01:30:05;;;;;;;16.55;12.90;;;18.40;99.90;;;;;;5070838;28;20044;-71
2023/06/25 01:32:31;;;;;;;20.00;14.68;;;18.50;99.90;;;;;;5071634;28;20027;-71
2023/06/25 01:34:57;;;;;;;19.52;14.73;;;18.50;99.90;;;;;;5070773;28;20545;-71
2023/06/25 01:37:22;;;;;;;18.42;14.82;;;18.50;99.90;;;;;;5071425;28;20071;-71
2023/06/25 01:39:54;;;;;;;21.08;14.90;;;18.50;99.90;;;;;;5071341;28;20025;-71
2023/06/25 01:42:20;;;;;;;21.45;14.90;;;18.50;99.90;;;;;;5071315;28;20454;-71
2023/06/25 01:44:46;;;;;;;18.55;13.48;;;18.50;99.90;;;;;;5071228;28;20051;-71
2023/06/25 01:47:11;;;;;;;23.00;14.77;;;18.50;99.90;;;;;;5070663;28;20056;-71
2023/06/25 01:49:37;;;;;;;19.95;14.32;;;18.50;99.90;;;;;;5068341;28;20033;-71
2023/06/25 01:52:03;;;;;;;20.10;15.05;;;18.50;99.90;;;;;;5050790;28;20061;-71
2023/06/25 01:54:28;;;;;;;19.10;13.95;;;18.50;99.90;;;;;;5060910;28;20075;-71
2023/06/25 01:56:54;;;;;;;20.48;14.23;;;18.50;99.90;;;;;;5070615;28;20485;-71
2023/06/25 01:59:20;;;;;;;17.05;13.70;;;18.50;99.90;;;;;;5075227;28;20421;-71
2023/06/25 02:01:46;;;;;;;18.77;15.10;;;18.50;99.90;;;;;;5075190;28;20048;-71
2023/06/25 02:04:11;;;;;;;18.33;13.93;;;18.40;99.90;;;;;;5074666;28;20033;-71
2023/06/25 02:06:37;;;;;;;18.77;13.50;;;18.40;99.90;;;;;;5075160;28;20099;-71
2023/06/25 02:09:02;;;;;;;18.13;13.38;;;18.40;99.90;;;;;;5074890;28;20035;-71
2023/06/25 02:11:28;;;;;;;20.13;14.23;;;18.30;99.90;;;;;;5075287;28;20390;-71
2023/06/25 02:13:53;;;;;;;19.13;13.82;;;18.30;99.90;;;;;;5074537;28;20547;-70
2023/06/25 02:16:19;;;;;;;20.75;13.80;;;18.20;99.90;;;;;;5075125;28;20099;-71
2023/06/25 02:18:45;;;;;;;19.05;14.75;;;18.20;99.90;;;;;;5074455;28;20021;-71
2023/06/25 02:21:10;;;;;;;20.95;15.18;;;18.20;99.90;;;;;;5074733;28;20056;-71
2023/06/25 02:23:36;;;;;;;17.73;14.73;;;18.10;99.90;;;;;;5074686;28;20074;-71
2023/06/25 02:26:02;;;;;;;20.98;16.05;;;18.00;99.90;;;;;;5074368;28;20025;-71
2023/06/25 02:28:27;;;;;;;20.83;14.55;;;18.00;99.90;;;;;;5074744;28;20070;-71
2023/06/25 02:30:52;;;;;;;19.20;14.93;;;18.00;99.90;;;;;;5073226;28;20047;-71
2023/06/25 02:33:18;;;;;;;17.73;14.18;;;18.00;99.90;;;;;;5074551;28;20070;-71
2023/06/25 02:35:44;;;;;;;21.15;14.70;;;17.90;99.90;;;;;;5074589;28;20075;-71
2023/06/25 02:38:09;;;;;;;21.00;14.48;;;17.90;99.90;;;;;;5074235;28;20454;-71
2023/06/25 02:40:35;;;;;;;21.92;15.10;;;17.90;99.90;;;;;;5074594;28;20514;-71
2023/06/25 02:43:01;;;;;;;20.60;13.90;;;17.90;99.90;;;;;;5074046;28;20013;-70
2023/06/25 02:45:27;;;;;;;17.95;14.15;;;17.90;99.90;;;;;;5074607;28;20371;-71
2023/06/25 02:47:52;;;;;;;20.13;14.35;;;17.80;99.90;;;;;;5073959;28;20085;-71
2023/06/25 02:50:18;;;;;;;20.98;15.13;;;17.80;99.90;;;;;;5054321;28;20040;-71
2023/06/25 02:52:43;;;;;;;17.05;13.85;;;17.80;99.90;;;;;;5062010;28;20021;-71
2023/06/25 02:55:09;;;;;;;17.77;14.20;;;17.80;99.90;;;;;;5074064;28;20051;-71
2023/06/25 02:57:35;;;;;;;18.17;14.45;;;17.70;99.90;;;;;;5074138;28;20028;-71
2023/06/25 03:00:01;;;;;;;21.63;15.13;;;17.80;99.90;;;;;;5072455;28;20031;-71
2023/06/25 03:02:26;;;;;;;23.17;15.05;;;17.70;99.90;;;;;;5073149;28;20044;-71
2023/06/25 03:04:52;;;;;;;23.10;15.25;;;17.70;99.90;;;;;;5071189;28;20047;-71
2023/06/25 03:07:18;;;;;;;26.23;16.63;;;17.70;99.90;;;;;;5072643;28;20015;-71
2023/06/25 03:09:44;;;;;;;22.42;15.68;;;17.70;99.90;;;;;;5072114;28;20475;-71
2023/06/25 03:12:09;;;;;;;19.33;14.60;;;17.70;99.90;;;;;;5072244;28;20445;-71
2023/06/25 03:14:36;;;;;;;17.80;14.30;;;17.60;99.90;;;;;;5072898;28;20031;-71
2023/06/25 03:17:03;;;;;;;19.45;14.60;;;17.60;99.90;;;;;;5072542;28;20020;-71
2023/06/25 03:19:29;;;;;;;23.05;16.55;;;17.60;99.90;;;;;;5071506;28;20112;-71
2023/06/25 03:21:54;;;;;;;25.23;15.63;;;17.60;99.90;;;;;;5072209;28;20112;-71
2023/06/25 03:24:20;;;;;;;21.70;15.95;;;17.60;99.90;;;;;;5072440;28;20478;-71
2023/06/25 03:26:45;;;;;;;20.58;15.27;;;17.60;99.90;;;;;;5072758;28;20389;-71
2023/06/25 03:29:11;;;;;;;20.42;15.77;;;17.60;99.90;;;;;;5072092;28;20024;-71
2023/06/25 03:31:36;;;;;;;20.55;14.57;;;17.60;99.90;;;;;;5072538;28;20032;-71
2023/06/25 03:34:02;;;;;;;20.67;16.08;;;17.60;99.90;;;;;;5071670;28;20498;-71
2023/06/25 03:36:27;;;;;;;20.83;16.77;;;17.60;99.90;;;;;;5072454;28;20032;-71
2023/06/25 03:38:53;;;;;;;22.70;15.32;;;17.60;99.90;;;;;;5072168;28;20020;-70
2023/06/25 03:41:19;;;;;;;22.20;14.98;;;17.50;99.90;;;;;;5072001;28;20470;-71
2023/06/25 03:43:44;;;;;;;21.42;15.40;;;17.60;99.90;;;;;;5072285;28;20032;-71
2023/06/25 03:46:10;;;;;;;19.38;14.80;;;17.60;99.90;;;;;;5071771;28;20024;-71
2023/06/25 03:48:36;;;;;;;24.83;16.45;;;17.50;99.90;;;;;;5054910;28;20040;-71
2023/06/25 03:51:01;;;;;;;22.23;16.10;;;17.50;99.90;;;;;;5050539;28;20037;-70
2023/06/25 03:53:27;;;;;;;24.23;17.15;;;17.60;99.90;;;;;;5068526;28;20024;-71
2023/06/25 03:55:52;;;;;;;20.75;15.90;;;17.50;99.90;;;;;;5071787;28;20051;-71
2023/06/25 03:58:18;;;;;;;19.88;15.45;;;17.60;99.90;;;;;;5072189;28;20029;-71
2023/06/25 04:00:44;;;;;;;26.75;16.27;;;17.60;99.90;;;;;;5035103;28;1043852;-71
2023/06/25 04:03:10;;;;;;;19.48;15.68;;;17.60;99.90;;;;;;5072534;28;20029;-71
2023/06/25 04:05:36;;;;;;;19.35;14.25;;;17.60;99.90;;;;;;5072764;28;20454;-71
2023/06/25 04:08:02;;;;;;;20.77;15.20;;;17.60;99.90;;;;;;5072220;28;20052;-71
2023/06/25 04:10:28;;;;;;;25.35;17.90;;;17.60;99.90;;;;;;5072730;28;20083;-71
2023/06/25 04:12:54;;;;;;;21.05;16.38;;;17.60;99.90;;;;;;5072259;28;20041;-71
2023/06/25 04:15:19;;;;;;;18.83;15.00;;;17.60;99.90;;;;;;5072312;28;20419;-71
2023/06/25 04:17:46;;;;;;;19.90;16.80;;;17.70;99.90;;;;;;5072511;28;20021;-71
2023/06/25 04:20:12;;;;;;;21.70;16.45;;;17.70;99.90;;;;;;5071487;28;20036;-70
2023/06/25 04:22:38;;;;;;;24.05;15.07;;;17.80;99.90;;;;;;5072482;28;20027;-71
2023/06/25 04:25:04;;;;;;;21.27;16.48;;;17.80;99.90;;;;;;5071861;28;20024;-71
2023/06/25 04:27:29;;;;;;;19.48;15.75;;;17.80;99.90;;;;;;5072546;28;20028;-70
2023/06/25 04:29:55;;;;;;;23.40;16.67;;;17.90;99.90;;;;;;5071777;28;20071;-71
2023/06/25 04:32:20;;;;;;;22.63;17.63;;;18.00;99.90;;;;;;5072750;28;20070;-71
2023/06/25 04:34:46;;;;;;;18.92;15.52;;;18.00;99.90;;;;;;5071983;28;20025;-71
2023/06/25 04:37:11;;;;;;;25.20;17.17;;;18.00;99.90;;;;;;5071914;28;20025;-71
2023/06/25 04:39:39;;;;;;;18.02;15.35;;;18.10;99.90;;;;;;5072350;28;20082;-71
2023/06/25 04:42:05;;;;;;;25.17;17.67;;;18.10;99.90;;;;;;5071717;28;20427;-71
2023/06/25 04:44:31;;;;;;;22.65;17.42;;;18.10;99.90;;;;;;5072169;28;20024;-71
2023/06/25 04:46:56;;;;;;;21.63;16.40;;;18.20;99.90;;;;;;5056656;28;20166;-71
2023/06/25 04:49:22;;;;;;;24.67;18.30;;;18.30;99.90;;;;;;5068028;28;20017;-71
2023/06/25 04:51:47;;;;;;;23.80;17.33;;;18.40;99.90;;;;;;5072033;28;20025;-71
2023/06/25 04:54:13;;;;;;;22.17;17.10;;;18.40;99.90;;;;;;5071741;28;20052;-71
2023/06/25 04:56:39;;;;;;;19.90;15.65;;;18.60;99.90;;;;;;5071903;28;20033;-71
2023/06/25 04:59:04;;;;;;;20.38;14.75;;;18.90;99.90;;;;;;5071644;28;20108;-71
2023/06/25 05:01:30;;;;;;;17.73;13.45;;;19.40;99.90;;;;;;5071321;28;20075;-71
2023/06/25 05:03:56;;;;;;;16.50;12.45;;;19.90;99.90;;;;;;5071022;28;20023;-71
2023/06/25 05:06:21;;;;;;;18.67;13.55;;;20.30;99.90;;;;;;5071783;28;20028;-71
2023/06/25 05:08:47;;;;;;;14.15;12.00;;;20.70;99.90;;;;;;5071199;28;20032;-71
2023/06/25 05:11:12;;;;;;;15.07;10.95;;;21.10;99.90;;;;;;5071225;28;20048;-71
2023/06/25 05:13:38;;;;;;;16.95;12.40;;;21.50;99.90;;;;;;5071493;28;20028;-71
2023/06/25 05:16:04;;;;;;;12.70;10.80;;;21.80;99.90;;;;;;5071354;28;20024;-71
2023/06/25 05:18:29;;;;;;;16.45;12.77;;;22.10;99.90;;;;;;5071424;28;20024;-71
2023/06/25 05:20:55;;;;;;;12.55;10.60;;;22.40;99.90;;;;;;5071100;28;20501;-71
2023/06/25 05:23:20;;;;;;;12.52;10.77;;;22.60;99.90;;;;;;5087628;28;20466;-71
2023/06/25 05:25:46;;;;;;;14.60;10.90;;;22.90;99.90;;;;;;5087754;28;20025;-71
2023/06/25 05:28:12;;;;;;;13.65;10.40;;;23.10;99.90;;;;;;5071013;28;20471;-71
2023/06/25 05:30:37;;;;;;;14.90;10.70;;;23.50;99.90;;;;;;5071031;28;20040;-71
2023/06/25 05:33:03;;;;;;;11.63;9.70;;;23.80;99.90;;;;;;5070985;28;20021;-71
2023/06/25 05:35:29;;;;;;;11.45;9.38;;;24.00;99.90;;;;;;5071102;28;20510;-71
2023/06/25 05:37:56;;;;;;;13.80;10.88;;;24.20;99.90;;;;;;5070815;28;20024;-71
2023/06/25 05:40:22;;;;;;;10.52;9.32;;;24.30;99.90;;;;;;5071398;28;20118;-71
2023/06/25 05:42:48;;;;;;;11.73;9.52;;;24.60;99.90;;;;;;5070926;28;20032;-71
2023/06/25 05:45:13;;;;;;;12.65;9.75;;;24.80;99.90;;;;;;5059278;28;20025;-71
2023/06/25 05:47:39;;;;;;;12.73;10.27;;;25.00;99.90;;;;;;5051316;28;20079;-71
2023/06/25 05:50:05;;;;;;;14.48;10.55;;;25.10;99.90;;;;;;5049498;28;20095;-71
2023/06/25 05:52:31;;;;;;;12.85;10.35;;;25.20;99.90;;;;;;5051023;28;20055;-71
2023/06/25 05:54:56;;;;;;;15.52;10.90;;;25.20;99.90;;;;;;5070256;28;20036;-72
2023/06/25 05:57:22;;;;;;;14.02;10.80;;;25.20;99.90;;;;;;5070531;28;20029;-71
2023/06/25 05:59:47;;;;;;;13.48;10.18;;;25.20;99.90;;;;;;5071056;28;20113;-71
2023/06/25 06:02:13;;;;;;;14.48;10.60;;;25.10;99.90;;;;;;5070555;28;20119;-71
2023/06/25 06:04:39;;;;;;;13.27;10.23;;;25.10;99.90;;;;;;5070723;28;20037;-71
2023/06/25 06:07:04;;;;;;;10.85;8.77;;;25.10;99.90;;;;;;5070746;28;20025;-71
2023/06/25 06:09:30;;;;;;;8.30;7.32;;;25.10;99.90;;;;;;5071003;28;20063;-71
2023/06/25 06:11:55;;;;;;;11.45;7.53;;;25.10;99.90;;;;;;5070478;28;20107;-71
2023/06/25 06:14:21;;;;;;;10.50;7.70;;;25.00;99.90;;;;;;5071195;28;20039;-71
2023/06/25 06:16:47;;;;;;;9.15;6.68;;;25.00;99.90;;;;;;5070875;28;20103;-71
2023/06/25 06:19:12;;;;;;;8.18;6.78;;;24.90;99.90;;;;;;5070388;28;20036;-71
2023/06/25 06:21:37;;;;;;;9.10;7.25;;;24.90;99.90;;;;;;5071115;28;20363;-71
2023/06/25 06:24:03;;;;;;;10.38;7.15;;;24.90;99.90;;;;;;5070426;28;20474;-71
2023/06/25 06:26:29;;;;;;;8.40;6.70;;;25.00;99.90;;;;;;5071135;28;20035;-71
2023/06/25 06:28:54;;;;;;;10.88;7.38;;;24.90;99.90;;;;;;5070512;28;20474;-72
2023/06/25 06:31:21;;;;;;;9.68;7.00;;;24.90;99.60;;;;;;5070915;28;20112;-71
2023/06/25 06:33:47;;;;;;;9.23;7.22;;;24.90;99.50;;;;;;5070691;28;20100;-71
2023/06/25 06:36:12;;;;;;;10.32;7.00;;;24.90;99.30;;;;;;5070243;28;20154;-71
2023/06/25 06:38:38;;;;;;;9.75;7.55;;;24.80;99.30;;;;;;5070808;28;20062;-71
2023/06/25 06:41:04;;;;;;;10.20;6.78;;;24.90;99.30;;;;;;5070193;28;20040;-71
2023/06/25 06:43:31;;;;;;;10.77;6.88;;;24.90;98.60;;;;;;5070337;28;20029;-71
2023/06/25 06:45:56;;;;;;;9.88;6.85;;;25.00;98.60;;;;;;5073995;28;20024;-71
2023/06/25 06:48:22;;;;;;;10.77;7.68;;;25.00;98.10;;;;;;5074308;28;20040;-71
2023/06/25 06:50:49;;;;;;;10.38;7.00;;;25.10;97.70;;;;;;5073954;28;20036;-71
2023/06/25 06:53:15;;;;;;;9.68;7.32;;;25.10;97.40;;;;;;5074350;28;20058;-71
2023/06/25 06:55:40;;;;;;;9.63;6.65;;;25.20;97.10;;;;;;5074158;28;20028;-71
2023/06/25 06:58:06;;;;;;;10.85;6.53;;;25.20;97.10;;;;;;5073756;28;20047;-71
2023/06/25 07:00:31;;;;;;;8.88;6.80;;;25.30;96.70;;;;;;5074374;28;20037;-71
2023/06/25 07:02:59;;;;;;;11.52;6.82;;;25.40;96.90;;;;;;5073386;28;20040;-71
2023/06/25 07:05:24;;;;;;;9.73;6.78;;;25.50;96.50;;;;;;5073970;28;20450;-71
2023/06/25 07:07:50;;;;;;;8.80;7.10;;;25.50;96.30;;;;;;5073401;28;20085;-71
2023/06/25 07:10:15;;;;;;;10.05;6.68;;;25.60;95.90;;;;;;5073908;28;20109;-71
2023/06/25 07:12:41;;;;;;;10.20;7.47;;;25.60;95.80;;;;;;5074110;28;20103;-71
2023/06/25 07:15:06;;;;;;;9.15;6.90;;;25.70;95.70;;;;;;5073498;28;20028;-71
2023/06/25 07:17:32;;;;;;;11.50;7.03;;;25.80;94.90;;;;;;5073770;28;20032;-71
2023/06/25 07:19:58;;;;;;;11.10;6.60;;;25.90;94.40;;;;;;5073013;28;20100;-71
2023/06/25 07:22:26;;;;;;;8.75;5.75;;;26.00;93.60;;;;;;5073927;28;20040;-71
2023/06/25 07:24:52;;;;;;;10.05;6.63;;;26.10;93.30;;;;;;5073041;28;20447;-71
2023/06/25 07:27:17;;;;;;;6.85;5.30;;;26.20;92.90;;;;;;5073596;28;20060;-71
2023/06/25 07:29:43;;;;;;;8.70;6.57;;;26.20;93.00;;;;;;5073521;28;20078;-71
2023/06/25 07:32:08;;;;;;;8.93;6.65;;;26.30;92.20;;;;;;5073040;28;20056;-72
2023/06/25 07:34:35;;;;;;;10.50;6.65;;;26.30;91.90;;;;;;5073409;28;20100;-71
2023/06/25 07:37:03;;;;;;;10.55;7.38;;;26.40;91.60;;;;;;5073187;28;20131;-71
2023/06/25 07:39:29;;;;;;;9.75;6.85;;;26.40;91.30;;;;;;5073650;28;20025;-71
2023/06/25 07:41:56;;;;;;;9.13;6.95;;;26.50;91.30;;;;;;5065807;28;20439;-71
2023/06/25 07:44:22;;;;;;;9.95;6.00;;;26.50;91.20;;;;;;5052135;28;20029;-71
2023/06/25 07:46:49;;;;;;;9.30;6.32;;;26.50;91.50;;;;;;5053238;28;20155;-71
2023/06/25 07:49:15;;;;;;;7.75;5.70;;;26.60;91.50;;;;;;5053152;28;20036;-72
2023/06/25 07:51:44;;;;;;;7.68;6.18;;;26.70;90.70;;;;;;5062916;28;20033;-71
2023/06/25 07:54:10;;;;;;;8.30;6.00;;;26.80;90.70;;;;;;5072495;28;20021;-71
2023/06/25 07:56:36;;;;;;;10.10;6.10;;;26.80;90.50;;;;;;5071951;28;20504;-71
2023/06/25 07:59:01;;;;;;;8.45;5.88;;;27.00;90.40;;;;;;5072776;28;20020;-72
2023/06/25 08:01:27;;;;;;;9.07;5.70;;;27.00;89.80;;;;;;5072802;28;20514;-71
2023/06/25 08:03:53;;;;;;;7.72;5.60;;;27.10;89.00;;;;;;5072464;28;20036;-71
2023/06/25 08:06:18;;;;;;;8.60;6.32;;;27.10;88.30;;;;;;5073307;28;20032;-71
2023/06/25 08:08:44;;;;;;;8.55;5.97;;;27.20;86.90;;;;;;5072919;28;20118;-71
2023/06/25 08:11:09;;;;;;;7.53;5.60;;;27.30;86.30;;;;;;5072097;28;20521;-71
2023/06/25 08:13:35;;;;;;;10.23;6.88;;;27.40;85.90;;;;;;5072698;28;20029;-71
2023/06/25 08:16:00;;;;;;;9.63;6.43;;;27.40;84.90;;;;;;5072116;28;20039;-71
2023/06/25 08:18:26;;;;;;;7.60;5.75;;;27.50;85.10;;;;;;5072973;28;20021;-71
2023/06/25 08:20:51;;;;;;;8.48;6.13;;;27.60;84.60;;;;;;5072136;28;20025;-71
2023/06/25 08:23:17;;;;;;;8.63;5.60;;;27.60;83.80;;;;;;5072634;28;20454;-71
2023/06/25 08:25:42;;;;;;;10.68;6.07;;;27.70;84.20;;;;;;5072510;28;20025;-71
2023/06/25 08:28:08;;;;;;;7.45;5.88;;;27.70;85.20;;;;;;5072040;28;20391;-71
2023/06/25 08:30:33;;;;;;;7.22;6.07;;;27.80;83.80;;;;;;5072250;28;20040;-71
2023/06/25 08:32:59;;;;;;;9.63;6.20;;;27.80;84.10;;;;;;5071608;28;20020;-71
2023/06/25 08:35:24;;;;;;;10.15;7.15;;;27.90;81.90;;;;;;5072298;28;20479;-71
2023/06/25 08:37:50;;;;;;;8.90;6.88;;;28.00;82.10;;;;;;5071810;28;20517;-72
2023/06/25 08:40:18;;;;;;;10.32;6.57;;;28.00;82.50;;;;;;5071878;28;20028;-71
2023/06/25 08:42:44;;;;;;;10.18;6.30;;;28.20;82.90;;;;;;5071861;28;20021;-71
2023/06/25 08:45:11;;;;;;;10.07;7.22;;;28.20;82.70;;;;;;5071615;28;20020;-71
2023/06/25 08:47:40;;;;;;;11.77;7.13;;;28.30;82.20;;;;;;5071885;28;20027;-71
2023/06/25 08:50:08;;;;;;;8.50;7.43;;;28.30;82.60;;;;;;5071500;28;20170;-71
2023/06/25 08:52:34;;;;;;;12.05;7.20;;;28.30;80.70;;;;;;5071936;28;20033;-71
2023/06/25 08:55:00;;;;;;;11.30;8.00;;;28.30;80.90;;;;;;5071531;28;20043;-71
2023/06/25 08:57:26;;;;;;;11.18;8.38;;;28.40;80.40;;;;;;5072062;28;20021;-71
2023/06/25 08:59:51;;;;;;;8.85;6.97;;;28.50;80.00;;;;;;5071240;28;20031;-71
2023/06/25 09:02:18;;;;;;;10.70;6.63;;;28.60;79.80;;;;;;5071637;28;20517;-71
2023/06/25 09:04:46;;;;;;;7.70;5.65;;;28.70;80.30;;;;;;5071674;28;20035;-71
2023/06/25 09:07:16;;;;;;;10.02;7.18;;;28.70;78.90;;;;;;5070713;28;20120;-71
2023/06/25 09:09:53;;;;;;;9.65;7.05;;;28.80;77.40;;;;;;5070710;28;20024;-71
2023/06/25 09:12:25;;;;;;;11.85;7.60;;;28.90;77.50;;;;;;5071674;28;20020;-71
2023/06/25 09:14:51;;;;;;;12.20;7.80;;;28.90;77.10;;;;;;5070733;28;20024;-71
2023/06/25 09:17:20;;;;;;;10.00;7.70;;;29.00;77.20;;;;;;5071587;28;20078;-71
2023/06/25 09:19:47;;;;;;;9.95;6.63;;;29.10;76.40;;;;;;5071487;28;20024;-71
2023/06/25 09:22:13;;;;;;;8.27;6.57;;;29.20;75.70;;;;;;5070301;28;20028;-71
2023/06/25 09:24:43;;;;;;;7.93;5.88;;;29.20;75.60;;;;;;5071396;28;20385;-72
2023/06/25 09:27:10;;;;;;;7.93;6.40;;;29.20;75.90;;;;;;5070927;28;20025;-71
2023/06/25 09:29:37;;;;;;;9.65;6.95;;;29.30;75.80;;;;;;5071110;28;20052;-71
2023/06/25 09:32:07;;;;;;;8.27;7.00;;;29.40;76.30;;;;;;5071298;28;20058;-71
2023/06/25 09:34:33;;;;;;;8.90;6.38;;;29.40;75.50;;;;;;5071577;28;20020;-71
2023/06/25 09:37:02;;;;;;;10.18;7.20;;;29.50;74.80;;;;;;5070887;28;20394;-71
2023/06/25 09:39:30;;;;;;;11.38;6.93;;;29.60;74.20;;;;;;5061668;28;20040;-71
2023/06/25 09:41:56;;;;;;;7.68;6.22;;;29.60;74.50;;;;;;5061022;28;20032;-71
2023/06/25 09:44:22;;;;;;;10.55;6.85;;;29.60;74.70;;;;;;5071233;28;20029;-71
2023/06/25 09:46:52;;;;;;;6.43;5.60;;;29.70;73.90;;;;;;5071367;28;20024;-71
2023/06/25 09:49:19;;;;;;;7.85;5.88;;;29.70;73.40;;;;;;5071142;28;20472;-71
2023/06/25 09:52:06;;;;;;;6.82;5.72;;;29.80;73.00;;;;;;5071174;28;20029;-71
2023/06/25 09:54:34;;;;;;;7.20;5.55;;;29.90;72.40;;;;;;5070941;28;20021;-71
2023/06/25 09:57:03;;;;;;;8.88;5.90;;;29.90;72.80;;;;;;5070829;28;20036;-71
2023/06/25 09:59:29;;;;;;;8.55;6.13;;;30.00;73.00;;;;;;5071195;28;20108;-71
2023/06/25 10:01:55;;;;;;;8.18;6.03;;;30.10;72.70;;;;;;5069488;28;20135;-72
2023/06/25 10:04:21;;;;;;;5.50;5.00;;;30.10;71.50;;;;;;5071185;28;20028;-72
2023/06/25 10:06:48;;;;;;;6.80;4.88;;;30.30;71.50;;;;;;5070721;28;20025;-71
2023/06/25 10:09:14;;;;;;;8.98;6.22;;;30.20;70.70;;;;;;5070799;28;20032;-71
2023/06/25 10:11:57;;;;;;;11.05;5.20;;;30.30;70.40;;;;;;5070565;28;20115;-71
2023/06/25 10:14:23;;;;;;;6.63;5.15;;;30.40;70.80;;;;;;5070843;28;20024;-71
2023/06/25 10:16:56;;;;;;;7.70;4.75;;;30.30;69.60;;;;;;5070511;28;20509;-71
2023/06/25 10:19:31;;;;;;;5.05;4.55;;;30.20;70.00;;;;;;5072878;28;20074;-72
2023/06/25 10:22:12;;;;;;;8.68;4.72;;;30.20;69.90;;;;;;5074363;28;20478;-71
2023/06/25 10:24:41;;;;;;;6.80;4.33;;;30.30;69.70;;;;;;5074878;28;20029;-71
2023/06/25 10:27:29;;;;;;;4.60;3.88;;;30.30;70.20;;;;;;5074345;28;20051;-71
2023/06/25 10:29:59;;;;;;;5.88;4.32;;;30.50;70.50;;;;;;5074186;28;20116;-71
2023/06/25 10:32:27;;;;;;;8.05;5.13;;;30.60;69.40;;;;;;5074952;28;20037;-71
2023/06/25 10:35:03;;;;;;;4.65;3.83;;;30.60;69.00;;;;;;5074428;28;20028;-71
2023/06/25 10:37:32;;;;;;;5.93;4.05;;;30.80;68.90;;;;;;5073570;28;20020;-71
2023/06/25 10:40:09;;;;;;;4.20;3.40;;;30.80;68.00;;;;;;5073997;28;20034;-71
2023/06/25 10:42:36;;;;;;;4.70;3.53;;;30.90;68.60;;;;;;5074331;28;20058;-71
2023/06/25 10:45:11;;;;;;;5.55;3.10;;;31.00;68.50;;;;;;5073726;28;20151;-70
2023/06/25 10:47:37;;;;;;;4.65;3.10;;;31.10;68.50;;;;;;5074356;28;20023;-70
2023/06/25 10:50:20;;;;;;;4.43;3.15;;;31.20;67.50;;;;;;5074043;28;20037;-72
2023/06/25 10:52:51;;;;;;;4.68;2.83;;;31.30;66.30;;;;;;5073847;28;20382;-71
2023/06/25 10:55:17;;;;;;;5.25;2.95;;;31.20;65.50;;;;;;5073746;28;20032;-71
2023/06/25 10:57:43;;;;;;;6.38;2.72;;;31.10;66.70;;;;;;5074561;28;20036;-71
2023/06/25 11:00:09;;;;;;;4.13;2.85;;;31.20;65.60;;;;;;5073935;28;20425;-71
2023/06/25 11:02:35;;;;;;;3.70;2.35;;;31.40;65.10;;;;;;5073659;28;20106;-71
2023/06/25 11:05:02;;;;;;;6.07;2.72;;;31.40;64.80;;;;;;5073560;28;20020;-71
2023/06/25 11:07:28;;;;;;;4.35;2.38;;;31.60;64.40;;;;;;5073769;28;20183;-71
2023/06/25 11:09:58;;;;;;;3.95;3.03;;;31.60;63.90;;;;;;5073219;28;20029;-71
2023/06/25 11:12:24;;;;;;;3.92;2.70;;;31.60;64.00;;;;;;5073886;28;20028;-71
2023/06/25 11:14:50;;;;;;;3.78;3.05;;;31.50;62.00;;;;;;5073667;28;20378;-73
2023/06/25 11:17:16;;;;;;;3.78;2.97;;;31.40;61.70;;;;;;5073978;28;20043;-71
2023/06/25 11:19:42;;;;;;;5.40;2.70;;;31.40;62.40;;;;;;5073404;28;20029;-71
2023/06/25 11:22:08;;;;;;;3.72;2.35;;;31.40;63.70;;;;;;5073461;28;20643;-72
2023/06/25 11:24:37;;;;;;;3.90;3.22;;;31.40;64.50;;;;;;5074032;28;20166;-71
2023/06/25 11:27:04;;;;;;;4.18;2.80;;;31.50;64.40;;;;;;5073501;28;20029;-72
2023/06/25 11:29:37;;;;;;;4.47;3.08;;;31.70;63.30;;;;;;5073329;28;20029;-72
2023/06/25 11:32:07;;;;;;;5.88;2.33;;;31.70;61.80;;;;;;5073231;28;20029;-71
2023/06/25 11:34:33;;;;;;;3.63;2.42;;;31.70;62.00;;;;;;5073520;28;20064;-71
2023/06/25 11:37:15;;;;;;;3.47;2.30;;;31.80;60.40;;;;;;5061651;28;20060;-71
2023/06/25 11:39:49;;;;;;;2.70;2.22;;;31.80;60.80;;;;;;5062549;28;20494;-71
2023/06/25 11:42:20;;;;;;;4.57;2.15;;;31.90;59.90;;;;;;5073268;28;20025;-71
2023/06/25 11:45:00;;;;;;;5.07;2.40;;;31.90;59.60;;;;;;5073437;28;20486;-71
2023/06/25 11:47:26;;;;;;;3.50;2.92;;;31.90;60.00;;;;;;5073289;28;20025;-71
2023/06/25 11:49:55;;;;;;;3.53;2.30;;;31.90;60.10;;;;;;5073003;28;20021;-71
2023/06/25 11:52:21;;;;;;;3.20;2.55;;;31.90;60.80;;;;;;5071679;28;20031;-71
2023/06/25 11:54:47;;;;;;;3.35;2.78;;;31.90;59.40;;;;;;5073102;28;20027;-71
2023/06/25 11:57:13;;;;;;;4.75;2.53;;;31.80;58.50;;;;;;5072639;28;20028;-71
2023/06/25 11:59:38;;;;;;;2.65;2.08;;;31.70;59.70;;;;;;5072937;28;20028;-71
2023/06/25 12:02:04;;;;;;;4.93;2.83;;;31.70;60.10;;;;;;5072329;28;20044;-71
2023/06/25 12:04:30;;;;;;;2.90;1.90;;;31.70;60.50;;;;;;5072791;28;20021;-71
2023/06/25 12:06:55;;;;;;;3.53;2.67;;;31.70;60.00;;;;;;5072555;28;20033;-71
2023/06/25 12:09:21;;;;;;;3.63;2.63;;;31.80;60.70;;;;;;5072916;28;20029;-71
2023/06/25 12:11:46;;;;;;;3.22;2.67;;;31.80;60.60;;;;;;5072714;28;20490;-71
2023/06/25 12:14:12;;;;;;;2.85;2.22;;;31.80;60.00;;;;;;5070986;28;20031;-71
2023/06/25 12:16:37;;;;;;;3.03;2.42;;;31.90;59.50;;;;;;5072349;28;20074;-71
2023/06/25 12:19:05;;;;;;;4.25;2.47;;;32.00;59.90;;;;;;5072196;28;20086;-71
2023/06/25 12:21:31;;;;;;;3.33;2.17;;;32.10;59.30;;;;;;5072569;28;20467;-71
2023/06/25 12:23:56;;;;;;;3.45;2.50;;;32.20;59.50;;;;;;5072245;28;20073;-71
2023/06/25 12:26:22;;;;;;;5.95;2.38;;;32.30;57.90;;;;;;5072578;28;20054;-71
2023/06/25 12:28:50;;;;;;;3.17;2.25;;;32.30;58.80;;;;;;5060256;28;20387;-71
2023/06/25 12:31:16;;;;;;;2.58;1.90;;;32.30;60.10;;;;;;5065623;28;20036;-71
2023/06/25 12:33:42;;;;;;;3.90;2.13;;;32.30;58.10;;;;;;5071301;28;20021;-71